createdAt,value
2019-02-16T00:00:12.787Z,8.80
2019-02-16T00:02:41.855Z,9.13
2019-02-16T00:05:10.924Z,13.17
2019-02-16T00:07:39.991Z,12.00
2019-02-16T00:10:09.061Z,12.87
2019-02-16T00:12:38.135Z,16.97
2019-02-16T00:15:07.871Z,9.63
2019-02-16T00:17:38.117Z,10.93
2019-02-16T00:20:08.147Z,9.97
2019-02-16T00:22:37.220Z,16.50
2019-02-16T00:25:06.277Z,10.67
2019-02-16T00:27:35.359Z,11.23
2019-02-16T00:30:05.086Z,11.37
2019-02-16T00:32:34.174Z,9.77
2019-02-16T00:35:03.596Z,9.10
2019-02-16T00:37:32.670Z,12.97
2019-02-16T00:40:01.728Z,7.57
2019-02-16T00:42:30.796Z,9.43
2019-02-16T00:44:59.855Z,10.63
2019-02-16T00:47:28.937Z,8.37
2019-02-16T00:49:57.988Z,8.53
2019-02-16T00:52:27.063Z,9.37
2019-02-16T00:54:56.118Z,10.30
2019-02-16T00:57:25.190Z,12.47
2019-02-16T00:59:54.254Z,8.90
2019-02-16T01:02:23.316Z,7.67
2019-02-16T01:04:52.373Z,9.80
2019-02-16T01:07:21.428Z,9.60
2019-02-16T01:09:50.499Z,9.20
2019-02-16T01:12:19.723Z,6.77
2019-02-16T01:14:48.787Z,9.37
2019-02-16T01:17:17.836Z,7.93
2019-02-16T01:19:47.076Z,8.00
2019-02-16T01:22:16.238Z,10.33
2019-02-16T01:24:45.303Z,9.40
2019-02-16T01:27:14.362Z,9.33
2019-02-16T01:29:43.431Z,8.97
2019-02-16T01:32:12.481Z,7.90
2019-02-16T01:34:41.563Z,7.47
2019-02-16T01:37:10.618Z,7.43
2019-02-16T01:39:39.691Z,9.40
2019-02-16T01:42:08.763Z,13.93
2019-02-16T01:44:37.831Z,9.67
2019-02-16T01:47:06.884Z,10.63
2019-02-16T01:49:35.964Z,10.87
2019-02-16T01:52:05.285Z,9.97
2019-02-16T01:54:34.350Z,7.77
2019-02-16T01:57:03.414Z,8.37
2019-02-16T01:59:32.480Z,10.27
2019-02-16T02:02:01.531Z,9.27
2019-02-16T02:04:30.674Z,6.23
2019-02-16T02:06:59.735Z,8.80
2019-02-16T02:09:28.981Z,9.67
2019-02-16T02:11:58.030Z,9.67
2019-02-16T02:14:27.108Z,12.53
2019-02-16T02:16:56.166Z,9.37
2019-02-16T02:19:25.237Z,8.43
2019-02-16T02:21:54.296Z,8.27
2019-02-16T02:24:23.365Z,9.93
2019-02-16T02:26:52.439Z,10.97
2019-02-16T02:29:21.512Z,9.77
2019-02-16T02:31:50.579Z,8.47
2019-02-16T02:34:19.644Z,12.60
2019-02-16T02:36:48.698Z,10.13
2019-02-16T02:39:17.770Z,10.27
2019-02-16T02:41:47.287Z,10.20
2019-02-16T02:44:16.543Z,11.53
2019-02-16T02:46:45.601Z,10.83
2019-02-16T02:49:14.687Z,11.37
2019-02-16T02:51:51.786Z,11.53
2019-02-16T02:54:14.514Z,11.33
2019-02-16T02:56:43.574Z,10.20
2019-02-16T02:59:12.651Z,10.23
2019-02-16T03:01:41.715Z,13.03
2019-02-16T03:04:10.792Z,9.70
2019-02-16T03:06:39.847Z,8.03
2019-02-16T03:09:08.920Z,11.00
2019-02-16T03:11:37.975Z,11.47
2019-02-16T03:14:07.047Z,10.50
2019-02-16T03:16:36.106Z,8.47
2019-02-16T03:19:05.179Z,9.10
2019-02-16T03:21:34.310Z,8.93
2019-02-16T03:24:03.377Z,10.07
2019-02-16T03:26:33.987Z,11.13
2019-02-16T03:29:07.572Z,9.73
2019-02-16T03:31:43.922Z,7.10
2019-02-16T03:34:26.280Z,10.07
2019-02-16T03:37:13.443Z,7.60
2019-02-16T03:39:43.406Z,12.53
2019-02-16T03:42:12.794Z,10.77
2019-02-16T03:44:41.875Z,9.03
2019-02-16T03:47:10.934Z,14.87
2019-02-16T03:49:40.051Z,9.33
2019-02-16T03:52:13.800Z,14.03
2019-02-16T03:54:39.936Z,9.90
2019-02-16T03:57:08.979Z,11.53
2019-02-16T03:59:38.058Z,8.77
2019-02-16T04:02:07.132Z,6.97
2019-02-16T04:04:36.195Z,9.47
2019-02-16T04:07:05.254Z,7.57
2019-02-16T04:09:34.590Z,9.80
2019-02-16T04:12:03.651Z,9.00
2019-02-16T04:14:32.720Z,10.90
2019-02-16T04:17:01.783Z,10.57
2019-02-16T04:19:30.851Z,8.20
2019-02-16T04:21:59.915Z,9.20
2019-02-16T04:24:28.995Z,12.00
2019-02-16T04:26:58.039Z,9.63
2019-02-16T04:29:27.095Z,11.03
2019-02-16T04:31:56.167Z,6.97
2019-02-16T04:34:25.238Z,8.13
2019-02-16T04:36:54.310Z,11.80
2019-02-16T04:39:23.736Z,11.00
2019-02-16T04:41:52.803Z,8.23
2019-02-16T04:44:21.863Z,11.50
2019-02-16T04:46:50.935Z,7.90
2019-02-16T04:49:19.987Z,8.10
2019-02-16T04:51:49.054Z,9.47
2019-02-16T04:54:18.116Z,9.97
2019-02-16T04:56:47.187Z,9.83
2019-02-16T04:59:16.244Z,9.40
2019-02-16T05:01:45.325Z,8.17
2019-02-16T05:04:14.397Z,10.13
2019-02-16T05:06:43.470Z,10.67
2019-02-16T05:09:12.530Z,10.33
2019-02-16T05:11:41.598Z,9.07
2019-02-16T05:14:10.654Z,8.50
2019-02-16T05:16:39.723Z,9.93
2019-02-16T05:19:08.777Z,8.80
2019-02-16T05:21:37.847Z,8.50
2019-02-16T05:24:06.906Z,8.67
2019-02-16T05:26:35.972Z,9.93
2019-02-16T05:29:05.022Z,7.93
2019-02-16T05:31:34.084Z,8.77
2019-02-16T05:34:03.143Z,10.03
2019-02-16T05:36:32.219Z,9.43
2019-02-16T05:39:01.278Z,12.67
2019-02-16T05:41:30.397Z,8.37
2019-02-16T05:43:59.614Z,11.10
2019-02-16T05:46:28.691Z,11.10
2019-02-16T05:48:57.768Z,9.20
2019-02-16T05:51:26.839Z,10.23
2019-02-16T05:53:55.901Z,8.83
2019-02-16T05:56:24.980Z,8.30
2019-02-16T05:58:54.034Z,12.03
2019-02-16T06:01:23.111Z,11.97
2019-02-16T06:03:52.175Z,10.20
2019-02-16T06:06:21.263Z,10.33
2019-02-16T06:08:50.325Z,10.30
2019-02-16T06:11:19.400Z,12.03
2019-02-16T06:13:48.458Z,11.43
2019-02-16T06:16:17.531Z,10.53
2019-02-16T06:18:46.596Z,9.17
2019-02-16T06:21:15.691Z,11.30
2019-02-16T06:23:44.756Z,9.43
2019-02-16T06:26:13.828Z,14.00
2019-02-16T06:28:42.883Z,11.80
2019-02-16T06:31:11.994Z,13.97
2019-02-16T06:33:41.116Z,12.30
2019-02-16T06:36:11.858Z,11.17
2019-02-16T06:38:40.979Z,17.47
2019-02-16T06:41:10.118Z,12.90
2019-02-16T06:43:39.184Z,13.40
2019-02-16T06:46:08.249Z,11.00
2019-02-16T06:48:37.306Z,9.80
2019-02-16T06:51:06.384Z,10.40
2019-02-16T06:53:35.452Z,11.87
2019-02-16T06:56:06.171Z,11.47
2019-02-16T06:58:35.226Z,11.90
2019-02-16T07:01:04.290Z,10.03
2019-02-16T07:03:33.358Z,7.57
2019-02-16T07:06:02.428Z,10.77
2019-02-16T07:08:31.502Z,8.10
2019-02-16T07:11:00.559Z,7.47
2019-02-16T07:13:29.627Z,7.03
2019-02-16T07:16:16.864Z,7.40
2019-02-16T07:19:02.951Z,6.33
2019-02-16T07:21:32.056Z,7.47
2019-02-16T07:24:01.177Z,7.73
2019-02-16T07:26:30.316Z,6.73
2019-02-16T07:28:59.384Z,9.73
2019-02-16T07:31:28.431Z,6.37
2019-02-16T07:33:57.500Z,8.23
2019-02-16T07:36:26.560Z,8.57
2019-02-16T07:38:55.626Z,8.10
2019-02-16T07:41:24.744Z,9.27
2019-02-16T07:43:58.278Z,9.00
2019-02-16T07:46:32.172Z,8.37
2019-02-16T07:49:02.887Z,7.63
2019-02-16T07:51:33.583Z,6.60
2019-02-16T07:54:04.295Z,7.33
2019-02-16T07:56:34.982Z,7.10
2019-02-16T07:59:05.702Z,9.60
2019-02-16T08:01:39.452Z,10.77
2019-02-16T08:04:22.180Z,8.83
2019-02-16T08:06:55.898Z,6.93
2019-02-16T08:09:32.356Z,7.50
2019-02-16T08:12:11.894Z,6.97
2019-02-16T08:14:54.502Z,7.93
2019-02-16T08:17:25.227Z,9.60
2019-02-16T08:20:01.920Z,6.80
2019-02-16T08:22:32.622Z,10.63
2019-02-16T08:25:09.495Z,8.53
2019-02-16T08:27:40.204Z,7.33
2019-02-16T08:30:29.060Z,12.67
2019-02-16T08:32:59.784Z,9.30
2019-02-16T08:35:36.267Z,9.97
2019-02-16T08:38:18.837Z,12.87
2019-02-16T08:41:01.619Z,8.63
2019-02-16T08:43:32.329Z,9.17
2019-02-16T08:46:15.082Z,7.83
2019-02-16T08:48:48.771Z,9.17
2019-02-16T08:51:19.472Z,9.97
2019-02-16T08:53:55.635Z,8.10
2019-02-16T08:56:28.993Z,13.07
2019-02-16T08:59:08.659Z,8.07
2019-02-16T09:01:42.020Z,10.47
2019-02-16T09:04:15.175Z,10.97
2019-02-16T09:06:45.870Z,16.77
2019-02-16T09:09:16.591Z,8.67
2019-02-16T09:11:52.718Z,9.87
2019-02-16T09:14:32.544Z,9.47
2019-02-16T09:17:03.245Z,9.77
2019-02-16T09:19:45.653Z,9.40
2019-02-16T09:22:28.386Z,8.83
2019-02-16T09:25:01.891Z,10.07
2019-02-16T09:27:38.542Z,9.37
2019-02-16T09:30:16.687Z,15.23
2019-02-16T09:32:50.547Z,10.57
2019-02-16T09:35:38.128Z,9.37
2019-02-16T09:38:11.634Z,7.63
2019-02-16T09:40:48.112Z,9.83
2019-02-16T09:43:18.819Z,9.00
2019-02-16T09:45:58.288Z,13.77
2019-02-16T09:48:29.008Z,8.83
2019-02-16T09:50:59.715Z,10.53
2019-02-16T09:53:48.696Z,12.90
2019-02-16T09:56:25.474Z,8.53
2019-02-16T09:59:11.218Z,9.57
2019-02-16T10:01:44.600Z,10.17
2019-02-16T10:04:15.301Z,10.13
2019-02-16T10:06:54.934Z,10.70
2019-02-16T10:09:31.677Z,13.17
2019-02-16T10:12:02.370Z,12.63
2019-02-16T10:14:34.690Z,10.00
2019-02-16T10:17:05.382Z,11.13
2019-02-16T10:19:36.092Z,17.10
2019-02-16T10:22:16.444Z,13.13
2019-02-16T10:24:50.207Z,11.67
2019-02-16T10:27:23.864Z,9.23
2019-02-16T10:30:06.547Z,8.97
2019-02-16T10:32:49.266Z,8.63
2019-02-16T10:35:22.679Z,8.80
2019-02-16T10:38:05.805Z,11.87
2019-02-16T10:40:36.535Z,12.73
2019-02-16T10:43:07.237Z,11.30
2019-02-16T10:45:50.325Z,10.90
2019-02-16T10:48:23.483Z,12.33
2019-02-16T10:50:54.200Z,13.17
2019-02-16T10:53:24.912Z,12.40
2019-02-16T10:56:01.457Z,9.37
2019-02-16T10:58:44.343Z,11.23
2019-02-16T11:01:18.151Z,13.57
2019-02-16T11:04:00.955Z,11.60
2019-02-16T11:06:47.018Z,10.77
2019-02-16T11:09:17.715Z,9.40
2019-02-16T11:12:03.175Z,12.43
2019-02-16T11:14:45.962Z,11.20
2019-02-16T11:17:22.094Z,10.43
2019-02-16T11:19:52.796Z,11.37
2019-02-16T11:22:29.320Z,14.77
2019-02-16T11:25:08.837Z,10.80
2019-02-16T11:27:40.419Z,10.00
2019-02-16T11:30:17.714Z,11.07
2019-02-16T11:32:51.030Z,13.53
2019-02-16T11:35:33.926Z,10.83
2019-02-16T11:38:10.657Z,14.80
2019-02-16T11:40:53.498Z,13.50
2019-02-16T11:43:24.219Z,12.60
2019-02-16T11:45:54.914Z,10.27
2019-02-16T11:48:31.558Z,11.33
2019-02-16T11:51:15.688Z,10.65
2019-02-16T11:53:49.319Z,10.63
2019-02-16T11:56:22.707Z,11.25
2019-02-16T11:59:05.360Z,13.93
2019-02-16T12:01:45.124Z,15.03
2019-02-16T12:04:21.745Z,11.40
2019-02-16T12:06:52.527Z,12.40
2019-02-16T12:09:23.231Z,11.18
2019-02-16T12:11:54.262Z,11.57
2019-02-16T12:14:34.174Z,13.85
2019-02-16T12:17:04.959Z,12.25
2019-02-16T12:19:44.919Z,11.78
2019-02-16T12:22:18.554Z,13.60
2019-02-16T12:25:04.999Z,12.40
2019-02-16T12:27:39.839Z,15.50
2019-02-16T12:30:13.765Z,13.55
2019-02-16T12:32:44.484Z,14.00
2019-02-16T12:35:24.175Z,15.88
2019-02-16T12:37:54.882Z,11.88
2019-02-16T12:40:28.594Z,11.50
2019-02-16T12:43:16.127Z,12.20
2019-02-16T12:45:51.461Z,11.97
2019-02-16T12:48:21.941Z,12.35
2019-02-16T12:50:52.664Z,13.85
2019-02-16T12:53:40.064Z,12.53
2019-02-16T12:56:13.756Z,13.50
2019-02-16T12:58:44.492Z,14.87
2019-02-16T13:01:27.256Z,12.98
2019-02-16T13:04:14.598Z,11.15
2019-02-16T13:06:51.471Z,13.58
2019-02-16T13:09:31.486Z,11.85
2019-02-16T13:12:11.717Z,11.93
2019-02-16T13:14:42.447Z,10.63
2019-02-16T13:17:16.235Z,13.43
2019-02-16T13:19:50.094Z,11.60
2019-02-16T13:22:27.326Z,11.73
2019-02-16T13:24:58.075Z,10.70
2019-02-16T13:27:34.619Z,9.23
2019-02-16T13:30:08.594Z,8.28
2019-02-16T13:32:55.737Z,12.13
2019-02-16T13:35:29.626Z,8.23
2019-02-16T13:38:09.382Z,7.23
2019-02-16T13:40:46.058Z,9.37
2019-02-16T13:43:25.731Z,11.77
2019-02-16T13:46:07.950Z,9.00
2019-02-16T13:48:41.644Z,9.93
2019-02-16T13:51:15.428Z,9.37
2019-02-16T13:53:51.787Z,9.43
2019-02-16T13:56:22.738Z,9.97
2019-02-16T13:58:53.535Z,10.47
2019-02-16T14:01:24.238Z,10.90
2019-02-16T14:03:59.364Z,11.33
2019-02-16T14:06:44.851Z,9.47
2019-02-16T14:09:15.552Z,9.20
2019-02-16T14:11:48.936Z,9.43
2019-02-16T14:14:31.600Z,10.67
2019-02-16T14:17:05.119Z,9.27
2019-02-16T14:19:34.227Z,9.17
2019-02-16T14:22:03.339Z,10.40
2019-02-16T14:24:39.482Z,11.30
2019-02-16T14:27:08.532Z,9.17
2019-02-16T14:29:37.685Z,9.13
2019-02-16T14:32:06.735Z,8.97
2019-02-16T14:34:35.812Z,10.73
2019-02-16T14:37:06.507Z,7.63
2019-02-16T14:39:35.567Z,8.33
2019-02-16T14:42:04.700Z,8.13
2019-02-16T14:44:34.122Z,9.23
2019-02-16T14:47:03.203Z,12.20
2019-02-16T14:49:32.254Z,8.30
2019-02-16T14:52:01.623Z,8.90
2019-02-16T14:54:30.697Z,8.67
2019-02-16T14:56:59.771Z,11.43
2019-02-16T14:59:28.839Z,8.57
2019-02-16T15:01:58.211Z,9.60
2019-02-16T15:04:27.268Z,6.90
2019-02-16T15:06:56.499Z,9.67
2019-02-16T15:09:25.551Z,9.03
2019-02-16T15:11:54.630Z,9.33
2019-02-16T15:14:23.998Z,8.40
2019-02-16T15:16:53.076Z,9.30
2019-02-16T15:19:22.123Z,10.07
2019-02-16T15:21:51.207Z,11.20
2019-02-16T15:24:21.246Z,8.83
2019-02-16T15:26:50.314Z,12.33
2019-02-16T15:29:19.366Z,7.57
2019-02-16T15:31:48.435Z,7.37
2019-02-16T15:34:17.494Z,9.87
2019-02-16T15:36:46.575Z,9.93
2019-02-16T15:39:15.631Z,14.73
2019-02-16T15:41:44.698Z,10.43
2019-02-16T15:44:13.758Z,9.63
2019-02-16T15:46:42.832Z,9.33
2019-02-16T15:49:11.887Z,11.30
2019-02-16T15:51:40.964Z,9.77
2019-02-16T15:54:10.060Z,7.90
2019-02-16T15:56:39.134Z,6.80
2019-02-16T15:59:09.598Z,9.43
2019-02-16T16:01:39.039Z,9.57
2019-02-16T16:04:08.169Z,10.23
2019-02-16T16:06:37.239Z,11.47
2019-02-16T16:09:14.009Z,8.73
2019-02-16T16:11:50.710Z,9.17
2019-02-16T16:14:39.859Z,9.07
2019-02-16T16:17:27.276Z,9.93
2019-02-16T16:20:04.256Z,9.93
2019-02-16T16:22:34.969Z,9.43
2019-02-16T16:25:06.139Z,11.67
2019-02-16T16:27:36.847Z,9.40
2019-02-16T16:30:07.813Z,9.57
2019-02-16T16:32:44.238Z,10.17
2019-02-16T16:35:14.935Z,8.33
2019-02-16T16:37:45.643Z,11.07
2019-02-16T16:40:28.092Z,11.57
2019-02-16T16:43:14.124Z,14.20
2019-02-16T16:45:57.174Z,11.23
2019-02-16T16:48:30.335Z,13.93
2019-02-16T16:51:10.058Z,10.23
2019-02-16T16:53:40.762Z,13.80
2019-02-16T16:56:11.464Z,12.67
2019-02-16T16:58:42.171Z,12.90
2019-02-16T17:01:29.251Z,17.37
2019-02-16T17:04:16.758Z,11.40
2019-02-16T17:06:53.479Z,13.63
2019-02-16T17:09:36.390Z,14.33
2019-02-16T17:12:07.098Z,15.17
2019-02-16T17:14:43.946Z,12.57
2019-02-16T17:17:20.202Z,12.73
2019-02-16T17:19:50.911Z,22.17
2019-02-16T17:22:24.052Z,18.10
2019-02-16T17:24:57.584Z,15.23
2019-02-16T17:27:31.451Z,16.23
2019-02-16T17:30:18.598Z,17.70
2019-02-16T17:32:49.303Z,15.10
2019-02-16T17:35:20.019Z,17.67
2019-02-16T17:38:03.000Z,16.20
2019-02-16T17:40:36.615Z,16.97
2019-02-16T17:43:22.180Z,22.17
2019-02-16T17:45:52.880Z,15.27
2019-02-16T17:48:23.619Z,17.47
2019-02-16T17:51:00.583Z,20.67
2019-02-16T17:53:40.217Z,16.37
2019-02-16T17:56:16.954Z,23.90
2019-02-16T17:58:50.699Z,18.33
2019-02-16T18:01:39.714Z,19.33
2019-02-16T18:04:13.635Z,22.80
2019-02-16T18:06:44.336Z,26.03
2019-02-16T18:09:15.375Z,20.80
2019-02-16T18:11:54.714Z,29.85
2019-02-16T18:14:34.446Z,22.43
2019-02-16T18:17:08.240Z,19.50
2019-02-16T18:19:38.963Z,22.17
2019-02-16T18:22:09.681Z,22.87
2019-02-16T18:24:40.395Z,26.23
2019-02-16T18:27:27.449Z,21.40
2019-02-16T18:30:04.320Z,21.13
2019-02-16T18:32:38.200Z,20.00
2019-02-16T18:35:23.464Z,25.90
2019-02-16T18:37:50.553Z,21.73
2019-02-16T18:40:30.769Z,23.73
2019-02-16T18:43:10.671Z,25.87
2019-02-16T18:45:41.388Z,30.33
2019-02-16T18:48:28.992Z,25.33
2019-02-16T18:50:59.708Z,33.97
2019-02-16T18:53:36.089Z,30.13
2019-02-16T18:56:06.860Z,33.07
2019-02-16T18:58:37.547Z,29.40
2019-02-16T19:01:11.287Z,27.97
2019-02-16T19:03:42.049Z,28.60
2019-02-16T19:06:15.479Z,23.13
2019-02-16T19:08:46.178Z,28.13
2019-02-16T19:11:19.563Z,23.73
2019-02-16T19:13:52.920Z,24.80
2019-02-16T19:16:23.615Z,25.40
2019-02-16T19:19:00.795Z,25.47
2019-02-16T19:21:48.104Z,24.33
2019-02-16T19:24:30.823Z,29.63
2019-02-16T19:27:16.475Z,31.77
2019-02-16T19:29:40.122Z,47.10
2019-02-16T19:32:27.615Z,39.87
2019-02-16T19:35:15.703Z,34.77
2019-02-16T19:38:02.763Z,28.80
2019-02-16T19:40:36.602Z,27.47
2019-02-16T19:43:22.262Z,24.87
2019-02-16T19:45:59.031Z,22.83
2019-02-16T19:48:48.153Z,30.50
2019-02-16T19:51:19.363Z,33.70
2019-02-16T19:53:59.426Z,32.40
2019-02-16T19:56:46.851Z,31.60
2019-02-16T19:59:23.611Z,26.80
2019-02-16T20:01:57.170Z,29.30
2019-02-16T20:04:33.917Z,23.20
2019-02-16T20:07:19.711Z,20.17
2019-02-16T20:09:50.411Z,27.10
2019-02-16T20:12:37.573Z,21.77
2019-02-16T20:15:08.360Z,23.00
2019-02-16T20:17:44.844Z,20.30
2019-02-16T20:20:18.508Z,19.07
2019-02-16T20:23:07.275Z,16.67
2019-02-16T20:25:40.774Z,23.07
2019-02-16T20:28:14.706Z,20.60
2019-02-16T20:30:45.482Z,17.50
2019-02-16T20:33:32.782Z,20.77
2019-02-16T20:36:03.486Z,25.77
2019-02-16T20:38:34.211Z,23.33
2019-02-16T20:41:21.278Z,24.83
2019-02-16T20:43:51.986Z,26.33
2019-02-16T20:46:37.677Z,23.97
2019-02-16T20:49:17.159Z,27.63
2019-02-16T20:51:50.986Z,26.43
2019-02-16T20:54:24.899Z,29.57
2019-02-16T20:56:55.693Z,26.17
2019-02-16T20:59:26.390Z,25.13
2019-02-16T21:02:06.067Z,22.87
2019-02-16T21:04:51.907Z,20.73
2019-02-16T21:07:38.983Z,25.57
2019-02-16T21:10:12.550Z,21.03
2019-02-16T21:12:43.325Z,26.77
2019-02-16T21:15:17.283Z,20.83
2019-02-16T21:17:53.967Z,20.17
2019-02-16T21:20:36.783Z,18.73
2019-02-16T21:23:13.430Z,25.40
2019-02-16T21:25:53.383Z,16.37
2019-02-16T21:28:40.813Z,16.67
2019-02-16T21:31:20.892Z,20.23
2019-02-16T21:33:51.594Z,20.70
2019-02-16T21:36:25.998Z,17.90
2019-02-16T21:39:03.133Z,20.03
2019-02-16T21:41:29.451Z,17.90
2019-02-16T21:44:18.414Z,16.47
2019-02-16T21:46:55.064Z,18.40
2019-02-16T21:49:25.791Z,21.90
2019-02-16T21:51:56.492Z,20.83
2019-02-16T21:54:36.287Z,24.73
2019-02-16T21:57:16.148Z,24.93
2019-02-16T21:59:49.633Z,17.73
2019-02-16T22:02:29.434Z,17.90
2019-02-16T22:05:18.466Z,18.90
2019-02-16T22:08:05.825Z,16.23
2019-02-16T22:10:39.456Z,14.53
2019-02-16T22:13:08.552Z,16.50
2019-02-16T22:15:37.676Z,18.77
2019-02-16T22:18:06.736Z,21.20
2019-02-16T22:20:35.815Z,18.10
2019-02-16T22:23:04.878Z,15.77
2019-02-16T22:25:33.951Z,23.53
2019-02-16T22:28:03.078Z,17.70
2019-02-16T22:30:32.255Z,19.20
2019-02-16T22:33:01.648Z,15.27
2019-02-16T22:35:30.735Z,18.73
2019-02-16T22:37:59.804Z,15.63
2019-02-16T22:40:28.870Z,17.13
2019-02-16T22:42:57.930Z,14.73
2019-02-16T22:45:27.005Z,18.43
2019-02-16T22:47:56.066Z,14.17
2019-02-16T22:50:25.134Z,13.27
2019-02-16T22:52:54.201Z,14.67
2019-02-16T22:55:23.280Z,16.80
2019-02-16T22:57:52.347Z,14.87
2019-02-16T23:00:38.205Z,15.00
2019-02-16T23:03:07.584Z,19.10
2019-02-16T23:05:36.660Z,18.17
2019-02-16T23:08:05.726Z,17.60
2019-02-16T23:10:34.813Z,15.63
2019-02-16T23:13:04.142Z,15.63
2019-02-16T23:15:33.303Z,15.47
2019-02-16T23:18:03.276Z,18.00
2019-02-16T23:20:32.341Z,16.20
2019-02-16T23:23:01.395Z,16.00
2019-02-16T23:25:30.498Z,17.73
2019-02-16T23:28:19.073Z,16.90
2019-02-16T23:30:48.159Z,18.50
2019-02-16T23:33:17.214Z,16.90
2019-02-16T23:35:46.292Z,16.03
2019-02-16T23:38:15.345Z,15.07
2019-02-16T23:40:44.990Z,14.43
2019-02-16T23:43:14.167Z,17.07
2019-02-16T23:45:43.240Z,16.47
2019-02-16T23:48:12.292Z,13.63
2019-02-16T23:50:41.361Z,12.93
2019-02-16T23:53:10.426Z,13.43
2019-02-16T23:55:39.510Z,12.60
2019-02-16T23:58:08.573Z,14.27
